sensor_id;sensor_type;location;lat;lon;timestamp;temperature;humidity
36442;DHT22;64346;50.820;16.274;2023-02-22T00:00:25;8.00;99.90
36442;DHT22;64346;50.820;16.274;2023-02-22T00:03:20;8.00;99.90
36442;DHT22;64346;50.820;16.274;2023-02-22T00:05:48;8.00;99.90
36442;DHT22;64346;50.820;16.274;2023-02-22T00:08:16;8.00;99.90
36442;DHT22;64346;50.820;16.274;2023-02-22T00:10:46;8.00;99.90
36442;DHT22;64346;50.820;16.274;2023-02-22T00:13:17;7.90;99.90
36442;DHT22;64346;50.820;16.274;2023-02-22T00:15:50;7.90;99.90
36442;DHT22;64346;50.820;16.274;2023-02-22T00:18:21;7.90;99.90
36442;DHT22;64346;50.820;16.274;2023-02-22T00:20:48;7.80;99.90
36442;DHT22;64346;50.820;16.274;2023-02-22T00:23:18;7.80;99.90
36442;DHT22;64346;50.820;16.274;2023-02-22T00:25:52;7.90;99.90
36442;DHT22;64346;50.820;16.274;2023-02-22T00:28:24;7.80;99.90
36442;DHT22;64346;50.820;16.274;2023-02-22T00:30:54;7.80;99.90
36442;DHT22;64346;50.820;16.274;2023-02-22T00:33:24;7.70;99.90
36442;DHT22;64346;50.820;16.274;2023-02-22T00:35:54;7.70;99.90
36442;DHT22;64346;50.820;16.274;2023-02-22T00:38:30;7.80;99.90
36442;DHT22;64346;50.820;16.274;2023-02-22T00:40:57;7.80;99.90
36442;DHT22;64346;50.820;16.274;2023-02-22T00:43:27;7.80;99.90
36442;DHT22;64346;50.820;16.274;2023-02-22T00:45:58;7.80;99.90
36442;DHT22;64346;50.820;16.274;2023-02-22T00:48:25;7.80;99.90
36442;DHT22;64346;50.820;16.274;2023-02-22T00:50:53;7.80;99.90
36442;DHT22;64346;50.820;16.274;2023-02-22T00:53:22;7.80;99.90
36442;DHT22;64346;50.820;16.274;2023-02-22T00:55:50;7.80;99.90
36442;DHT22;64346;50.820;16.274;2023-02-22T00:58:22;7.70;99.90
36442;DHT22;64346;50.820;16.274;2023-02-22T01:00:52;7.70;99.90
36442;DHT22;64346;50.820;16.274;2023-02-22T01:03:19;7.60;99.90
36442;DHT22;64346;50.820;16.274;2023-02-22T01:05:47;7.60;99.90
36442;DHT22;64346;50.820;16.274;2023-02-22T01:08:15;7.60;99.90
36442;DHT22;64346;50.820;16.274;2023-02-22T01:10:48;7.60;99.90
36442;DHT22;64346;50.820;16.274;2023-02-22T01:13:16;7.60;99.90
36442;DHT22;64346;50.820;16.274;2023-02-22T01:15:43;7.60;99.90
36442;DHT22;64346;50.820;16.274;2023-02-22T01:18:10;7.50;99.90
36442;DHT22;64346;50.820;16.274;2023-02-22T01:20:38;7.50;99.90
36442;DHT22;64346;50.820;16.274;2023-02-22T01:23:14;7.50;99.90
36442;DHT22;64346;50.820;16.274;2023-02-22T01:25:42;7.40;99.90
36442;DHT22;64346;50.820;16.274;2023-02-22T01:28:09;7.40;99.90
36442;DHT22;64346;50.820;16.274;2023-02-22T01:30:39;7.40;99.90
36442;DHT22;64346;50.820;16.274;2023-02-22T01:33:07;7.40;99.90
36442;DHT22;64346;50.820;16.274;2023-02-22T01:35:38;7.40;99.90
36442;DHT22;64346;50.820;16.274;2023-02-22T01:38:05;7.40;99.90
36442;DHT22;64346;50.820;16.274;2023-02-22T01:40:35;7.40;99.90
36442;DHT22;64346;50.820;16.274;2023-02-22T01:43:14;7.30;99.90
36442;DHT22;64346;50.820;16.274;2023-02-22T01:45:54;7.30;99.90
36442;DHT22;64346;50.820;16.274;2023-02-22T01:51:17;7.30;99.90
36442;DHT22;64346;50.820;16.274;2023-02-22T01:54:00;7.30;99.90
36442;DHT22;64346;50.820;16.274;2023-02-22T01:56:34;7.40;99.90
36442;DHT22;64346;50.820;16.274;2023-02-22T01:59:07;7.50;99.90
36442;DHT22;64346;50.820;16.274;2023-02-22T02:01:36;7.50;99.90
36442;DHT22;64346;50.820;16.274;2023-02-22T02:04:11;7.60;99.90
36442;DHT22;64346;50.820;16.274;2023-02-22T02:06:41;7.60;99.90
36442;DHT22;64346;50.820;16.274;2023-02-22T02:09:24;7.60;99.90
36442;DHT22;64346;50.820;16.274;2023-02-22T02:11:53;7.70;99.90
36442;DHT22;64346;50.820;16.274;2023-02-22T02:14:21;7.70;99.90
36442;DHT22;64346;50.820;16.274;2023-02-22T02:16:52;7.70;99.90
36442;DHT22;64346;50.820;16.274;2023-02-22T02:35:42;7.60;99.90
36442;DHT22;64346;50.820;16.274;2023-02-22T02:41:27;7.60;99.90
36442;DHT22;64346;50.820;16.274;2023-02-22T02:49:53;7.40;99.90
36442;DHT22;64346;50.820;16.274;2023-02-22T02:52:23;7.40;99.90
36442;DHT22;64346;50.820;16.274;2023-02-22T02:54:53;7.40;99.90
36442;DHT22;64346;50.820;16.274;2023-02-22T02:57:21;7.50;99.90
36442;DHT22;64346;50.820;16.274;2023-02-22T02:59:53;7.50;99.90
36442;DHT22;64346;50.820;16.274;2023-02-22T03:20:59;7.50;99.90
36442;DHT22;64346;50.820;16.274;2023-02-22T03:24:06;7.50;99.90
36442;DHT22;64346;50.820;16.274;2023-02-22T03:29:42;7.60;99.90
36442;DHT22;64346;50.820;16.274;2023-02-22T03:32:19;7.60;99.90
36442;DHT22;64346;50.820;16.274;2023-02-22T03:35:06;7.70;99.90
36442;DHT22;64346;50.820;16.274;2023-02-22T03:37:39;7.60;99.90
36442;DHT22;64346;50.820;16.274;2023-02-22T03:40:21;7.60;99.90
36442;DHT22;64346;50.820;16.274;2023-02-22T03:42:53;7.60;99.90
36442;DHT22;64346;50.820;16.274;2023-02-22T03:45:24;7.50;99.90
36442;DHT22;64346;50.820;16.274;2023-02-22T03:48:00;7.50;99.90
36442;DHT22;64346;50.820;16.274;2023-02-22T03:50:33;7.50;99.90
36442;DHT22;64346;50.820;16.274;2023-02-22T03:53:04;7.40;99.90
36442;DHT22;64346;50.820;16.274;2023-02-22T03:55:32;7.50;99.90
36442;DHT22;64346;50.820;16.274;2023-02-22T03:58:05;7.50;99.90
36442;DHT22;64346;50.820;16.274;2023-02-22T04:03:22;7.50;99.90
36442;DHT22;64346;50.820;16.274;2023-02-22T04:05:54;7.50;99.90
36442;DHT22;64346;50.820;16.274;2023-02-22T04:08:21;7.50;99.90
36442;DHT22;64346;50.820;16.274;2023-02-22T04:10:49;7.40;99.90
36442;DHT22;64346;50.820;16.274;2023-02-22T04:13:18;7.40;99.90
36442;DHT22;64346;50.820;16.274;2023-02-22T04:15:46;7.30;99.90
36442;DHT22;64346;50.820;16.274;2023-02-22T04:18:13;7.30;99.90
36442;DHT22;64346;50.820;16.274;2023-02-22T04:20:41;7.40;99.90
36442;DHT22;64346;50.820;16.274;2023-02-22T04:23:08;7.30;99.90
36442;DHT22;64346;50.820;16.274;2023-02-22T04:25:38;7.40;99.90
36442;DHT22;64346;50.820;16.274;2023-02-22T04:28:07;7.40;99.90
36442;DHT22;64346;50.820;16.274;2023-02-22T04:30:34;7.40;99.90
36442;DHT22;64346;50.820;16.274;2023-02-22T04:33:01;7.30;99.90
36442;DHT22;64346;50.820;16.274;2023-02-22T04:35:31;7.30;99.90
36442;DHT22;64346;50.820;16.274;2023-02-22T04:38:01;7.30;99.90
36442;DHT22;64346;50.820;16.274;2023-02-22T04:40:29;7.30;99.90
36442;DHT22;64346;50.820;16.274;2023-02-22T04:42:56;7.30;99.90
36442;DHT22;64346;50.820;16.274;2023-02-22T04:45:23;7.30;99.90
36442;DHT22;64346;50.820;16.274;2023-02-22T04:47:51;7.30;99.90
36442;DHT22;64346;50.820;16.274;2023-02-22T04:50:23;7.30;99.90
36442;DHT22;64346;50.820;16.274;2023-02-22T04:52:50;7.30;99.90
36442;DHT22;64346;50.820;16.274;2023-02-22T04:55:17;7.30;99.90
36442;DHT22;64346;50.820;16.274;2023-02-22T04:57:44;7.30;99.90
36442;DHT22;64346;50.820;16.274;2023-02-22T05:00:17;7.30;99.90
36442;DHT22;64346;50.820;16.274;2023-02-22T05:02:45;7.20;99.90
36442;DHT22;64346;50.820;16.274;2023-02-22T05:05:19;7.30;99.90
36442;DHT22;64346;50.820;16.274;2023-02-22T05:07:47;7.20;99.90
36442;DHT22;64346;50.820;16.274;2023-02-22T05:10:15;7.30;99.90
36442;DHT22;64346;50.820;16.274;2023-02-22T05:12:44;7.20;99.90
36442;DHT22;64346;50.820;16.274;2023-02-22T05:15:17;7.30;99.90
36442;DHT22;64346;50.820;16.274;2023-02-22T05:17:47;7.30;99.90
36442;DHT22;64346;50.820;16.274;2023-02-22T05:22:50;7.20;99.90
36442;DHT22;64346;50.820;16.274;2023-02-22T05:25:17;7.20;99.90
36442;DHT22;64346;50.820;16.274;2023-02-22T05:27:48;7.20;99.90
36442;DHT22;64346;50.820;16.274;2023-02-22T05:30:16;7.20;99.90
36442;DHT22;64346;50.820;16.274;2023-02-22T05:32:43;7.20;99.90
36442;DHT22;64346;50.820;16.274;2023-02-22T05:35:13;7.30;99.90
36442;DHT22;64346;50.820;16.274;2023-02-22T05:37:40;7.30;99.90
36442;DHT22;64346;50.820;16.274;2023-02-22T05:40:11;7.30;99.90
36442;DHT22;64346;50.820;16.274;2023-02-22T05:42:38;7.30;99.90
36442;DHT22;64346;50.820;16.274;2023-02-22T05:45:06;7.30;99.90
36442;DHT22;64346;50.820;16.274;2023-02-22T05:47:36;7.20;99.90
36442;DHT22;64346;50.820;16.274;2023-02-22T05:50:03;7.20;99.90
36442;DHT22;64346;50.820;16.274;2023-02-22T05:52:35;7.20;99.90
36442;DHT22;64346;50.820;16.274;2023-02-22T05:55:06;7.20;99.90
36442;DHT22;64346;50.820;16.274;2023-02-22T05:57:35;7.20;99.90
36442;DHT22;64346;50.820;16.274;2023-02-22T06:00:07;7.20;99.90
36442;DHT22;64346;50.820;16.274;2023-02-22T06:02:35;7.20;99.90
36442;DHT22;64346;50.820;16.274;2023-02-22T06:05:04;7.20;99.90
36442;DHT22;64346;50.820;16.274;2023-02-22T06:07:31;7.20;99.90
36442;DHT22;64346;50.820;16.274;2023-02-22T06:09:59;7.20;99.90
36442;DHT22;64346;50.820;16.274;2023-02-22T06:12:26;7.20;99.90
36442;DHT22;64346;50.820;16.274;2023-02-22T06:14:53;7.20;99.90
36442;DHT22;64346;50.820;16.274;2023-02-22T06:17:20;7.30;99.90
36442;DHT22;64346;50.820;16.274;2023-02-22T06:19:48;7.30;99.90
36442;DHT22;64346;50.820;16.274;2023-02-22T06:22:17;7.40;99.90
36442;DHT22;64346;50.820;16.274;2023-02-22T06:24:45;7.40;99.90
36442;DHT22;64346;50.820;16.274;2023-02-22T06:27:14;7.50;99.90
36442;DHT22;64346;50.820;16.274;2023-02-22T06:29:44;7.50;99.90
36442;DHT22;64346;50.820;16.274;2023-02-22T06:32:14;7.60;99.90
36442;DHT22;64346;50.820;16.274;2023-02-22T06:34:41;7.60;99.90
36442;DHT22;64346;50.820;16.274;2023-02-22T06:37:08;7.60;99.90
36442;DHT22;64346;50.820;16.274;2023-02-22T06:39:36;7.60;99.90
36442;DHT22;64346;50.820;16.274;2023-02-22T06:42:03;7.60;99.90
36442;DHT22;64346;50.820;16.274;2023-02-22T06:44:31;7.60;99.90
36442;DHT22;64346;50.820;16.274;2023-02-22T06:47:00;7.70;99.90
36442;DHT22;64346;50.820;16.274;2023-02-22T06:49:27;7.60;99.90
36442;DHT22;64346;50.820;16.274;2023-02-22T06:51:55;7.60;99.90
36442;DHT22;64346;50.820;16.274;2023-02-22T06:54:25;7.70;99.90
36442;DHT22;64346;50.820;16.274;2023-02-22T06:56:52;7.60;99.90
36442;DHT22;64346;50.820;16.274;2023-02-22T06:59:22;7.70;99.90
36442;DHT22;64346;50.820;16.274;2023-02-22T07:01:49;7.70;99.90
36442;DHT22;64346;50.820;16.274;2023-02-22T07:04:17;7.70;99.90
36442;DHT22;64346;50.820;16.274;2023-02-22T07:06:52;7.80;99.90
36442;DHT22;64346;50.820;16.274;2023-02-22T07:09:22;7.80;99.90
36442;DHT22;64346;50.820;16.274;2023-02-22T07:11:49;7.80;99.90
36442;DHT22;64346;50.820;16.274;2023-02-22T07:14:19;7.90;99.90
36442;DHT22;64346;50.820;16.274;2023-02-22T07:16:47;7.90;99.90
36442;DHT22;64346;50.820;16.274;2023-02-22T07:19:14;7.90;99.90
36442;DHT22;64346;50.820;16.274;2023-02-22T07:21:41;8.00;99.90
36442;DHT22;64346;50.820;16.274;2023-02-22T07:24:09;8.00;99.90
36442;DHT22;64346;50.820;16.274;2023-02-22T07:26:42;8.10;99.90
36442;DHT22;64346;50.820;16.274;2023-02-22T07:29:12;8.20;99.90
36442;DHT22;64346;50.820;16.274;2023-02-22T07:31:41;8.30;99.90
36442;DHT22;64346;50.820;16.274;2023-02-22T07:34:09;8.40;99.90
36442;DHT22;64346;50.820;16.274;2023-02-22T07:36:36;8.40;99.90
36442;DHT22;64346;50.820;16.274;2023-02-22T07:39:03;8.40;99.90
36442;DHT22;64346;50.820;16.274;2023-02-22T07:41:33;8.50;99.90
36442;DHT22;64346;50.820;16.274;2023-02-22T07:44:01;8.60;99.90
36442;DHT22;64346;50.820;16.274;2023-02-22T07:46:29;8.70;99.90
36442;DHT22;64346;50.820;16.274;2023-02-22T07:48:59;8.80;99.90
36442;DHT22;64346;50.820;16.274;2023-02-22T07:51:29;8.90;99.90
36442;DHT22;64346;50.820;16.274;2023-02-22T07:53:56;9.00;99.90
36442;DHT22;64346;50.820;16.274;2023-02-22T07:56:23;9.20;99.90
36442;DHT22;64346;50.820;16.274;2023-02-22T07:58:53;9.40;99.90
36442;DHT22;64346;50.820;16.274;2023-02-22T08:01:20;9.50;99.90
36442;DHT22;64346;50.820;16.274;2023-02-22T08:03:49;9.70;99.90
36442;DHT22;64346;50.820;16.274;2023-02-22T08:06:17;9.70;99.90
36442;DHT22;64346;50.820;16.274;2023-02-22T08:08:44;9.80;99.90
36442;DHT22;64346;50.820;16.274;2023-02-22T08:11:11;9.90;99.90
36442;DHT22;64346;50.820;16.274;2023-02-22T08:13:41;9.90;99.90
36442;DHT22;64346;50.820;16.274;2023-02-22T08:16:08;10.00;99.90
36442;DHT22;64346;50.820;16.274;2023-02-22T08:18:36;10.00;99.90
36442;DHT22;64346;50.820;16.274;2023-02-22T08:21:05;10.10;99.90
36442;DHT22;64346;50.820;16.274;2023-02-22T08:23:33;10.20;99.90
36442;DHT22;64346;50.820;16.274;2023-02-22T08:26:08;10.30;99.90
36442;DHT22;64346;50.820;16.274;2023-02-22T08:28:36;10.30;99.90
36442;DHT22;64346;50.820;16.274;2023-02-22T08:31:03;10.40;99.90
36442;DHT22;64346;50.820;16.274;2023-02-22T08:33:33;10.50;99.90
36442;DHT22;64346;50.820;16.274;2023-02-22T08:36:05;10.50;99.90
36442;DHT22;64346;50.820;16.274;2023-02-22T08:38:32;10.60;99.90
36442;DHT22;64346;50.820;16.274;2023-02-22T08:40:59;10.80;99.90
36442;DHT22;64346;50.820;16.274;2023-02-22T08:43:27;10.90;99.90
36442;DHT22;64346;50.820;16.274;2023-02-22T08:45:54;11.20;99.90
36442;DHT22;64346;50.820;16.274;2023-02-22T08:48:26;11.40;99.90
36442;DHT22;64346;50.820;16.274;2023-02-22T08:50:53;11.70;99.90
36442;DHT22;64346;50.820;16.274;2023-02-22T08:53:21;11.90;99.90
36442;DHT22;64346;50.820;16.274;2023-02-22T08:55:48;12.20;99.90
36442;DHT22;64346;50.820;16.274;2023-02-22T08:58:15;12.50;99.90
36442;DHT22;64346;50.820;16.274;2023-02-22T09:00:42;12.80;99.90
36442;DHT22;64346;50.820;16.274;2023-02-22T09:03:13;13.00;99.90
36442;DHT22;64346;50.820;16.274;2023-02-22T09:05:42;13.10;99.90
36442;DHT22;64346;50.820;16.274;2023-02-22T09:08:10;13.20;99.90
36442;DHT22;64346;50.820;16.274;2023-02-22T09:10:37;13.30;99.90
36442;DHT22;64346;50.820;16.274;2023-02-22T09:13:05;13.20;99.90
36442;DHT22;64346;50.820;16.274;2023-02-22T09:15:33;13.20;99.90
36442;DHT22;64346;50.820;16.274;2023-02-22T09:18:01;13.20;99.90
36442;DHT22;64346;50.820;16.274;2023-02-22T09:20:29;13.30;99.90
36442;DHT22;64346;50.820;16.274;2023-02-22T09:22:59;13.50;99.90
36442;DHT22;64346;50.820;16.274;2023-02-22T09:25:26;13.80;99.90
36442;DHT22;64346;50.820;16.274;2023-02-22T09:27:55;14.80;99.90
36442;DHT22;64346;50.820;16.274;2023-02-22T09:30:28;16.00;99.90
36442;DHT22;64346;50.820;16.274;2023-02-22T09:32:58;16.60;99.90
36442;DHT22;64346;50.820;16.274;2023-02-22T09:35:26;17.30;99.90
36442;DHT22;64346;50.820;16.274;2023-02-22T09:37:59;17.70;99.00
36442;DHT22;64346;50.820;16.274;2023-02-22T09:40:29;17.90;98.10
36442;DHT22;64346;50.820;16.274;2023-02-22T09:43:20;17.80;97.80
36442;DHT22;64346;50.820;16.274;2023-02-22T09:48:35;17.40;96.70
36442;DHT22;64346;50.820;16.274;2023-02-22T09:51:10;17.20;97.20
36442;DHT22;64346;50.820;16.274;2023-02-22T09:53:54;17.30;96.90
36442;DHT22;64346;50.820;16.274;2023-02-22T09:56:26;17.80;96.40
36442;DHT22;64346;50.820;16.274;2023-02-22T09:59:06;18.40;95.80
36442;DHT22;64346;50.820;16.274;2023-02-22T10:01:42;19.70;94.40
36442;DHT22;64346;50.820;16.274;2023-02-22T10:07:14;22.30;88.00
36442;DHT22;64346;50.820;16.274;2023-02-22T10:09:42;23.00;82.70
36442;DHT22;64346;50.820;16.274;2023-02-22T10:15:05;24.00;75.50
36442;DHT22;64346;50.820;16.274;2023-02-22T10:25:35;26.20;66.90
36442;DHT22;64346;50.820;16.274;2023-02-22T10:28:29;26.60;64.60
36442;DHT22;64346;50.820;16.274;2023-02-22T10:31:06;26.30;63.70
36442;DHT22;64346;50.820;16.274;2023-02-22T10:33:42;24.80;63.80
36442;DHT22;64346;50.820;16.274;2023-02-22T10:36:23;23.40;65.90
36442;DHT22;64346;50.820;16.274;2023-02-22T10:38:59;22.30;68.00
36442;DHT22;64346;50.820;16.274;2023-02-22T10:41:33;21.30;69.60
36442;DHT22;64346;50.820;16.274;2023-02-22T10:44:02;20.40;71.40
36442;DHT22;64346;50.820;16.274;2023-02-22T10:46:33;19.50;72.80
36442;DHT22;64346;50.820;16.274;2023-02-22T10:49:04;18.80;75.00
36442;DHT22;64346;50.820;16.274;2023-02-22T10:51:32;18.40;76.50
36442;DHT22;64346;50.820;16.274;2023-02-22T10:54:20;18.40;77.90
36442;DHT22;64346;50.820;16.274;2023-02-22T10:56:53;18.70;78.10
36442;DHT22;64346;50.820;16.274;2023-02-22T10:59:32;19.00;77.30
36442;DHT22;64346;50.820;16.274;2023-02-22T11:02:19;18.60;77.80
36442;DHT22;64346;50.820;16.274;2023-02-22T11:04:54;18.10;79.10
36442;DHT22;64346;50.820;16.274;2023-02-22T11:07:29;18.00;80.10
36442;DHT22;64346;50.820;16.274;2023-02-22T11:10:01;18.20;79.90
36442;DHT22;64346;50.820;16.274;2023-02-22T11:12:37;18.20;80.00
36442;DHT22;64346;50.820;16.274;2023-02-22T11:17:46;17.20;82.60
36442;DHT22;64346;50.820;16.274;2023-02-22T11:22:56;16.10;85.60
36442;DHT22;64346;50.820;16.274;2023-02-22T11:25:45;15.70;87.40
36442;DHT22;64346;50.820;16.274;2023-02-22T11:28:20;15.20;89.20
36442;DHT22;64346;50.820;16.274;2023-02-22T11:30:51;14.90;90.90
36442;DHT22;64346;50.820;16.274;2023-02-22T11:33:21;14.60;91.40
36442;DHT22;64346;50.820;16.274;2023-02-22T11:35:57;14.40;92.50
36442;DHT22;64346;50.820;16.274;2023-02-22T11:38:33;14.00;92.90
36442;DHT22;64346;50.820;16.274;2023-02-22T11:43:35;13.40;95.50
36442;DHT22;64346;50.820;16.274;2023-02-22T11:46:11;13.20;96.10
36442;DHT22;64346;50.820;16.274;2023-02-22T11:48:45;13.10;97.40
36442;DHT22;64346;50.820;16.274;2023-02-22T12:03:05;13.90;97.40
36442;DHT22;64346;50.820;16.274;2023-02-22T12:06:08;14.30;96.80
36442;DHT22;64346;50.820;16.274;2023-02-22T12:14:37;14.30;96.20
36442;DHT22;64346;50.820;16.274;2023-02-22T12:17:21;14.20;96.70
36442;DHT22;64346;50.820;16.274;2023-02-22T12:20:03;14.00;96.70
36442;DHT22;64346;50.820;16.274;2023-02-22T12:22:34;13.80;96.90
36442;DHT22;64346;50.820;16.274;2023-02-22T12:27:46;13.70;97.30
36442;DHT22;64346;50.820;16.274;2023-02-22T12:30:20;13.80;97.30
36442;DHT22;64346;50.820;16.274;2023-02-22T12:32:52;13.90;97.40
36442;DHT22;64346;50.820;16.274;2023-02-22T12:35:36;14.00;97.50
36442;DHT22;64346;50.820;16.274;2023-02-22T12:38:28;13.80;97.90
36442;DHT22;64346;50.820;16.274;2023-02-22T12:43:33;13.30;98.10
36442;DHT22;64346;50.820;16.274;2023-02-22T12:46:08;13.10;98.70
36442;DHT22;64346;50.820;16.274;2023-02-22T12:48:51;13.00;99.30
36442;DHT22;64346;50.820;16.274;2023-02-22T12:51:44;12.90;99.90
36442;DHT22;64346;50.820;16.274;2023-02-22T12:57:01;12.70;99.90
36442;DHT22;64346;50.820;16.274;2023-02-22T12:59:36;12.50;99.90
36442;DHT22;64346;50.820;16.274;2023-02-22T13:04:54;12.50;99.90
36442;DHT22;64346;50.820;16.274;2023-02-22T13:18:56;12.10;99.90
36442;DHT22;64346;50.820;16.274;2023-02-22T13:29:53;11.90;99.90
36442;DHT22;64346;50.820;16.274;2023-02-22T13:52:13;10.90;99.90
36442;DHT22;64346;50.820;16.274;2023-02-22T13:54:48;10.80;99.90
36442;DHT22;64346;50.820;16.274;2023-02-22T13:57:23;10.70;99.90
36442;DHT22;64346;50.820;16.274;2023-02-22T14:00:19;10.70;99.90
36442;DHT22;64346;50.820;16.274;2023-02-22T14:08:37;10.50;99.90
36442;DHT22;64346;50.820;16.274;2023-02-22T14:13:27;10.20;99.90
36442;DHT22;64346;50.820;16.274;2023-02-22T14:23:41;10.40;99.90
36442;DHT22;64346;50.820;16.274;2023-02-22T14:26:21;10.40;99.90
36442;DHT22;64346;50.820;16.274;2023-02-22T14:37:05;10.50;99.90
36442;DHT22;64346;50.820;16.274;2023-02-22T14:42:47;10.50;99.90
36442;DHT22;64346;50.820;16.274;2023-02-22T14:45:28;10.40;99.90
36442;DHT22;64346;50.820;16.274;2023-02-22T14:48:05;10.40;99.90
36442;DHT22;64346;50.820;16.274;2023-02-22T14:53:23;10.10;99.90
36442;DHT22;64346;50.820;16.274;2023-02-22T14:56:00;10.10;99.90
36442;DHT22;64346;50.820;16.274;2023-02-22T14:58:36;10.00;99.90
36442;DHT22;64346;50.820;16.274;2023-02-22T15:01:36;10.00;99.90
36442;DHT22;64346;50.820;16.274;2023-02-22T15:04:28;10.00;99.90
36442;DHT22;64346;50.820;16.274;2023-02-22T15:06:58;10.00;99.90
36442;DHT22;64346;50.820;16.274;2023-02-22T15:09:30;9.90;99.90
36442;DHT22;64346;50.820;16.274;2023-02-22T15:14:33;9.80;99.90
36442;DHT22;64346;50.820;16.274;2023-02-22T15:17:07;9.80;99.90
36442;DHT22;64346;50.820;16.274;2023-02-22T15:19:40;9.70;99.90
36442;DHT22;64346;50.820;16.274;2023-02-22T15:22:22;9.50;99.90
36442;DHT22;64346;50.820;16.274;2023-02-22T15:25:08;9.50;99.90
36442;DHT22;64346;50.820;16.274;2023-02-22T15:27:36;9.40;99.90
36442;DHT22;64346;50.820;16.274;2023-02-22T15:30:24;9.30;99.90
36442;DHT22;64346;50.820;16.274;2023-02-22T15:32:53;9.30;99.90
36442;DHT22;64346;50.820;16.274;2023-02-22T15:35:31;9.30;99.90
36442;DHT22;64346;50.820;16.274;2023-02-22T15:38:04;9.20;99.90
36442;DHT22;64346;50.820;16.274;2023-02-22T15:40:32;9.20;99.90
36442;DHT22;64346;50.820;16.274;2023-02-22T15:43:05;9.20;99.90
36442;DHT22;64346;50.820;16.274;2023-02-22T15:45:32;9.10;99.90
36442;DHT22;64346;50.820;16.274;2023-02-22T15:48:00;9.10;99.90
36442;DHT22;64346;50.820;16.274;2023-02-22T15:50:34;9.10;99.90
36442;DHT22;64346;50.820;16.274;2023-02-22T15:53:06;9.00;99.90
36442;DHT22;64346;50.820;16.274;2023-02-22T15:55:42;9.00;99.90
36442;DHT22;64346;50.820;16.274;2023-02-22T15:58:23;8.90;99.90
36442;DHT22;64346;50.820;16.274;2023-02-22T16:01:08;8.80;99.90
36442;DHT22;64346;50.820;16.274;2023-02-22T16:06:11;8.70;99.90
36442;DHT22;64346;50.820;16.274;2023-02-22T16:08:50;8.60;99.90
36442;DHT22;64346;50.820;16.274;2023-02-22T16:13:55;8.70;99.90
36442;DHT22;64346;50.820;16.274;2023-02-22T16:16:28;8.70;99.90
36442;DHT22;64346;50.820;16.274;2023-02-22T16:19:57;8.70;99.90
36442;DHT22;64346;50.820;16.274;2023-02-22T16:22:43;8.60;99.90
36442;DHT22;64346;50.820;16.274;2023-02-22T16:25:29;8.50;99.90
36442;DHT22;64346;50.820;16.274;2023-02-22T16:28:27;8.50;99.90
36442;DHT22;64346;50.820;16.274;2023-02-22T16:30:56;8.40;99.90
36442;DHT22;64346;50.820;16.274;2023-02-22T16:33:24;8.30;99.90
36442;DHT22;64346;50.820;16.274;2023-02-22T16:35:51;8.20;99.90
36442;DHT22;64346;50.820;16.274;2023-02-22T16:38:22;8.20;99.90
36442;DHT22;64346;50.820;16.274;2023-02-22T16:40:51;8.10;99.90
36442;DHT22;64346;50.820;16.274;2023-02-22T16:43:31;8.10;99.90
36442;DHT22;64346;50.820;16.274;2023-02-22T16:46:00;8.10;99.90
36442;DHT22;64346;50.820;16.274;2023-02-22T16:48:32;8.10;99.90
36442;DHT22;64346;50.820;16.274;2023-02-22T16:51:05;8.10;99.90
36442;DHT22;64346;50.820;16.274;2023-02-22T16:53:36;8.10;99.90
36442;DHT22;64346;50.820;16.274;2023-02-22T16:56:04;8.10;99.90
36442;DHT22;64346;50.820;16.274;2023-02-22T16:58:38;8.10;99.90
36442;DHT22;64346;50.820;16.274;2023-02-22T17:01:06;8.10;99.90
36442;DHT22;64346;50.820;16.274;2023-02-22T17:03:34;8.10;99.90
36442;DHT22;64346;50.820;16.274;2023-02-22T17:06:04;8.00;99.90
36442;DHT22;64346;50.820;16.274;2023-02-22T17:08:31;8.00;99.90
36442;DHT22;64346;50.820;16.274;2023-02-22T17:10:58;8.00;99.90
36442;DHT22;64346;50.820;16.274;2023-02-22T17:13:26;8.00;99.90
36442;DHT22;64346;50.820;16.274;2023-02-22T17:15:55;8.00;99.90
36442;DHT22;64346;50.820;16.274;2023-02-22T17:18:25;8.00;99.90
36442;DHT22;64346;50.820;16.274;2023-02-22T17:20:53;7.90;99.90
36442;DHT22;64346;50.820;16.274;2023-02-22T17:23:21;7.90;99.90
36442;DHT22;64346;50.820;16.274;2023-02-22T17:25:50;7.90;99.90
36442;DHT22;64346;50.820;16.274;2023-02-22T17:28:18;7.90;99.90
36442;DHT22;64346;50.820;16.274;2023-02-22T17:30:45;7.80;99.90
36442;DHT22;64346;50.820;16.274;2023-02-22T17:33:18;7.80;99.90
36442;DHT22;64346;50.820;16.274;2023-02-22T17:35:46;7.80;99.90
36442;DHT22;64346;50.820;16.274;2023-02-22T17:38:14;7.70;99.90
36442;DHT22;64346;50.820;16.274;2023-02-22T17:40:41;7.70;99.90
36442;DHT22;64346;50.820;16.274;2023-02-22T17:43:14;7.70;99.90
36442;DHT22;64346;50.820;16.274;2023-02-22T17:45:41;7.70;99.90
36442;DHT22;64346;50.820;16.274;2023-02-22T17:48:11;7.70;99.90
36442;DHT22;64346;50.820;16.274;2023-02-22T17:50:41;7.70;99.90
36442;DHT22;64346;50.820;16.274;2023-02-22T17:53:09;7.60;99.90
36442;DHT22;64346;50.820;16.274;2023-02-22T17:55:38;7.60;99.90
36442;DHT22;64346;50.820;16.274;2023-02-22T17:58:06;7.60;99.90
36442;DHT22;64346;50.820;16.274;2023-02-22T18:00:35;7.50;99.90
36442;DHT22;64346;50.820;16.274;2023-02-22T18:03:06;7.50;99.90
36442;DHT22;64346;50.820;16.274;2023-02-22T18:05:42;7.50;99.90
36442;DHT22;64346;50.820;16.274;2023-02-22T18:08:12;7.50;99.90
36442;DHT22;64346;50.820;16.274;2023-02-22T18:10:41;7.50;99.90
36442;DHT22;64346;50.820;16.274;2023-02-22T18:13:12;7.50;99.90
36442;DHT22;64346;50.820;16.274;2023-02-22T18:15:40;7.40;99.90
36442;DHT22;64346;50.820;16.274;2023-02-22T18:18:07;7.40;99.90
36442;DHT22;64346;50.820;16.274;2023-02-22T18:20:39;7.40;99.90
36442;DHT22;64346;50.820;16.274;2023-02-22T18:23:09;7.30;99.90
36442;DHT22;64346;50.820;16.274;2023-02-22T18:25:37;7.30;99.90
36442;DHT22;64346;50.820;16.274;2023-02-22T18:28:06;7.30;99.90
36442;DHT22;64346;50.820;16.274;2023-02-22T18:30:36;7.30;99.90
36442;DHT22;64346;50.820;16.274;2023-02-22T18:33:07;7.20;99.90
36442;DHT22;64346;50.820;16.274;2023-02-22T18:35:34;7.20;99.90
36442;DHT22;64346;50.820;16.274;2023-02-22T18:38:04;7.20;99.90
36442;DHT22;64346;50.820;16.274;2023-02-22T18:40:31;7.10;99.90
36442;DHT22;64346;50.820;16.274;2023-02-22T18:42:59;7.10;99.90
36442;DHT22;64346;50.820;16.274;2023-02-22T18:45:30;7.10;99.90
36442;DHT22;64346;50.820;16.274;2023-02-22T18:47:58;7.20;99.90
36442;DHT22;64346;50.820;16.274;2023-02-22T18:50:25;7.20;99.90
36442;DHT22;64346;50.820;16.274;2023-02-22T18:52:57;7.20;99.90
36442;DHT22;64346;50.820;16.274;2023-02-22T18:55:24;7.20;99.90
36442;DHT22;64346;50.820;16.274;2023-02-22T18:57:52;7.20;99.90
36442;DHT22;64346;50.820;16.274;2023-02-22T19:00:20;7.10;99.90